Time;durP1;ratioP1;P1;durP2;ratioP2;P2;SDS_P1;SDS_P2;PMS_P1;PMS_P2;Temp;Humidity;BMP_temperature;BMP_pressure;BME280_temperature;BME280_humidity;BME280_pressure;Samples;Min_cycle;Max_cycle;Signal;HPM_P1;HPM_P2
2021/05/09 00:01:34;;;;;;;4.33;3.83;;;13.10;1.00;;;;;;5121261;28;20532;-64
2021/05/09 00:04:00;;;;;;;4.33;3.93;;;13.00;1.00;;;;;;5121787;28;20622;-64
2021/05/09 00:10:01;;;;;;;3.90;3.57;;;13.00;1.00;;;;;;5080414;28;20450;-64
2021/05/09 00:12:28;;;;;;;4.47;3.70;;;12.90;1.00;;;;;;5089250;28;20524;-64
2021/05/09 00:14:54;;;;;;;3.80;3.50;;;12.90;1.00;;;;;;5120024;28;20456;-65
2021/05/09 00:17:21;;;;;;;4.27;3.87;;;12.90;1.00;;;;;;5119029;28;20960;-64
2021/05/09 00:19:47;;;;;;;4.70;4.30;;;12.90;1.00;;;;;;5119040;28;20921;-64
2021/05/09 00:22:13;;;;;;;4.40;4.00;;;12.90;1.00;;;;;;5119824;28;20961;-64
2021/05/09 00:24:39;;;;;;;4.97;4.33;;;12.90;1.00;;;;;;5119376;28;20961;-64
2021/05/09 00:27:06;;;;;;;4.03;3.70;;;12.90;1.00;;;;;;5119587;28;20448;-64
2021/05/09 00:29:33;;;;;;;5.63;4.10;;;12.90;1.00;;;;;;5118248;28;20477;-64
2021/05/09 00:31:59;;;;;;;4.17;3.77;;;12.90;1.00;;;;;;5119053;28;20924;-64
2021/05/09 00:34:28;;;;;;;6.70;4.80;;;13.00;1.00;;;;;;5119900;28;20448;-64
2021/05/09 00:36:54;;;;;;;4.90;3.73;;;13.00;1.00;;;;;;5119338;28;20477;-64
2021/05/09 00:39:20;;;;;;;6.37;3.90;;;13.00;1.00;;;;;;5118991;28;20456;-64
2021/05/09 00:56:21;;;;;;;4.03;3.53;;;13.00;1.00;;;;;;5118002;28;20218;-64
2021/05/09 00:58:50;;;;;;;3.80;3.50;;;13.10;1.00;;;;;;5118155;28;20689;-63
2021/05/09 01:01:19;;;;;;;4.10;3.70;;;13.10;1.00;;;;;;5118500;28;20486;-65
2021/05/09 01:03:47;;;;;;;4.33;3.80;;;13.10;1.00;;;;;;5117945;28;20801;-66
2021/05/09 01:06:14;;;;;;;4.70;4.30;;;13.10;1.00;;;;;;5118363;28;20458;-66
2021/05/09 01:08:40;;;;;;;4.30;3.60;;;13.10;1.00;;;;;;5118293;28;20810;-67
2021/05/09 01:11:08;;;;;;;4.07;3.77;;;13.10;1.00;;;;;;5117931;28;20463;-67
2021/05/09 01:13:35;;;;;;;3.80;3.50;;;13.10;1.00;;;;;;5117731;28;20491;-68
2021/05/09 01:16:01;;;;;;;5.07;4.03;;;13.10;1.00;;;;;;5117771;28;20555;-66
2021/05/09 01:18:28;;;;;;;3.93;3.63;;;13.10;1.00;;;;;;5117678;28;20477;-67
2021/05/09 01:20:57;;;;;;;4.30;3.90;;;13.10;1.00;;;;;;5117671;28;20551;-66
2021/05/09 01:23:23;;;;;;;4.20;3.73;;;13.10;1.00;;;;;;5116810;28;20455;-66
2021/05/09 01:25:49;;;;;;;4.90;4.03;;;13.00;1.00;;;;;;5116369;28;20448;-66
2021/05/09 01:28:15;;;;;;;4.27;3.87;;;13.10;1.00;;;;;;5117323;28;20453;-66
2021/05/09 01:30:42;;;;;;;4.17;3.77;;;13.10;1.00;;;;;;5117054;28;21108;-67
2021/05/09 01:33:08;;;;;;;4.00;3.70;;;13.10;1.00;;;;;;5117371;28;20456;-66
2021/05/09 01:35:35;;;;;;;4.70;4.17;;;13.10;1.00;;;;;;5117240;28;20452;-66
2021/05/09 01:38:04;;;;;;;4.30;3.90;;;13.10;1.00;;;;;;5117295;28;20480;-66
2021/05/09 01:40:30;;;;;;;4.10;3.67;;;13.10;1.00;;;;;;5116692;28;20468;-66
2021/05/09 01:42:56;;;;;;;4.47;3.90;;;13.10;1.00;;;;;;5117242;28;20460;-66
2021/05/09 01:45:22;;;;;;;6.70;3.40;;;13.00;1.00;;;;;;5116763;28;20460;-66
2021/05/09 01:47:49;;;;;;;4.17;3.77;;;13.00;1.00;;;;;;5117067;28;20456;-66
2021/05/09 01:50:17;;;;;;;5.93;4.67;;;13.00;1.00;;;;;;5116725;28;20521;-66
2021/05/09 01:52:44;;;;;;;4.70;4.10;;;13.00;1.00;;;;;;5116936;28;20452;-66
2021/05/09 01:55:13;;;;;;;5.67;3.80;;;13.00;1.00;;;;;;5117080;28;20472;-66
2021/05/09 01:57:39;;;;;;;4.13;3.70;;;13.00;1.00;;;;;;5116662;28;20537;-66
2021/05/09 02:00:11;;;;;;;4.00;3.70;;;13.00;1.00;;;;;;5116807;28;20463;-66
2021/05/09 02:02:37;;;;;;;4.60;4.07;;;13.00;1.00;;;;;;5116833;28;20513;-66
2021/05/09 02:05:04;;;;;;;4.10;3.70;;;13.00;1.00;;;;;;5116926;28;20452;-66
2021/05/09 02:07:30;;;;;;;4.33;3.93;;;13.00;1.00;;;;;;5116475;28;20448;-66
2021/05/09 02:09:56;;;;;;;4.20;3.80;;;13.00;1.00;;;;;;5116961;27;20457;-66
2021/05/09 02:12:23;;;;;;;3.60;3.30;;;13.00;1.00;;;;;;5116052;28;20993;-66
2021/05/09 02:14:51;;;;;;;4.63;4.13;;;13.00;1.00;;;;;;5117123;27;20456;-66
2021/05/09 02:17:18;;;;;;;3.87;3.57;;;13.00;1.00;;;;;;5116869;28;20788;-66
2021/05/09 02:19:44;;;;;;;4.87;4.37;;;13.00;1.00;;;;;;5115442;28;20570;-66
2021/05/09 02:22:11;;;;;;;4.40;3.97;;;13.00;1.00;;;;;;5115784;28;20456;-66
2021/05/09 02:24:37;;;;;;;4.27;3.87;;;13.00;1.00;;;;;;5119601;28;20453;-65
2021/05/09 02:27:03;;;;;;;4.90;3.97;;;12.90;1.00;;;;;;5115843;28;20452;-65
2021/05/09 02:29:30;;;;;;;5.17;3.90;;;12.90;1.00;;;;;;5115669;28;20468;-65
2021/05/09 02:31:58;;;;;;;3.93;3.63;;;12.90;1.00;;;;;;5116099;28;20484;-66
2021/05/09 02:34:25;;;;;;;4.30;3.90;;;12.90;1.00;;;;;;5116232;28;20873;-65
2021/05/09 02:36:51;;;;;;;4.67;4.20;;;12.90;1.00;;;;;;5116230;28;20448;-65
2021/05/09 02:39:17;;;;;;;4.07;3.67;;;12.90;1.00;;;;;;5116397;28;20505;-65
2021/05/09 02:41:44;;;;;;;5.23;3.80;;;12.90;1.00;;;;;;5116372;28;20524;-65
2021/05/09 02:44:10;;;;;;;5.13;3.60;;;12.90;1.00;;;;;;5116736;28;20486;-65
2021/05/09 02:46:37;;;;;;;5.17;3.40;;;12.90;1.00;;;;;;5115853;28;20452;-65
2021/05/09 02:49:04;;;;;;;3.67;3.37;;;12.90;1.00;;;;;;5114921;28;20448;-65
2021/05/09 02:51:30;;;;;;;4.40;4.00;;;12.80;1.00;;;;;;5115089;28;20945;-66
2021/05/09 02:53:56;;;;;;;5.00;4.50;;;12.90;1.00;;;;;;5116023;28;20464;-65
2021/05/09 02:56:23;;;;;;;4.33;3.83;;;12.90;1.00;;;;;;5116181;28;20467;-66
2021/05/09 02:58:49;;;;;;;5.47;3.97;;;12.80;1.00;;;;;;5116103;28;20480;-65
2021/05/09 03:01:18;;;;;;;4.03;3.47;;;12.80;1.00;;;;;;5116068;28;20788;-66
2021/05/09 03:03:45;;;;;;;4.10;3.67;;;12.80;1.00;;;;;;5115996;28;20504;-65
2021/05/09 03:06:11;;;;;;;4.53;4.00;;;12.80;1.00;;;;;;5115913;28;20457;-65
2021/05/09 03:08:37;;;;;;;4.73;4.23;;;12.80;1.00;;;;;;5116146;28;20452;-67
2021/05/09 03:11:04;;;;;;;4.10;3.70;;;12.70;1.00;;;;;;5115921;28;20463;-66
2021/05/09 03:13:31;;;;;;;4.03;3.70;;;12.70;1.00;;;;;;5115844;28;20456;-66
2021/05/09 03:15:57;;;;;;;4.10;3.80;;;12.70;1.00;;;;;;5116080;28;20457;-66
2021/05/09 03:18:23;;;;;;;4.40;3.70;;;12.60;1.00;;;;;;5115831;28;20476;-66
2021/05/09 03:20:50;;;;;;;3.80;3.50;;;12.60;1.00;;;;;;5115486;28;20933;-66
2021/05/09 03:23:17;;;;;;;5.30;3.97;;;12.50;1.00;;;;;;5117421;28;20451;-66
2021/05/09 03:25:43;;;;;;;5.63;4.47;;;12.50;1.00;;;;;;5117338;28;20468;-66
2021/05/09 03:28:09;;;;;;;4.10;3.80;;;12.50;1.00;;;;;;5117058;28;20467;-67
2021/05/09 03:30:35;;;;;;;5.60;4.37;;;12.40;1.00;;;;;;5115404;28;20476;-66
2021/05/09 03:33:01;;;;;;;5.07;4.00;;;12.40;1.00;;;;;;5116640;28;20456;-66
2021/05/09 03:35:28;;;;;;;4.00;3.60;;;12.30;1.00;;;;;;5116173;28;20483;-66
2021/05/09 03:37:55;;;;;;;3.90;3.60;;;12.30;1.00;;;;;;5115890;28;20498;-66
2021/05/09 03:40:21;;;;;;;4.47;4.07;;;12.30;1.00;;;;;;5116182;28;20555;-66
2021/05/09 03:42:47;;;;;;;4.77;4.03;;;12.30;1.00;;;;;;5116366;28;20452;-65
2021/05/09 03:45:14;;;;;;;4.50;4.10;;;12.30;1.00;;;;;;5116539;28;20467;-65
2021/05/09 03:47:41;;;;;;;4.30;4.00;;;12.20;1.00;;;;;;5116109;28;20467;-65
2021/05/09 03:50:08;;;;;;;4.30;3.90;;;12.20;1.00;;;;;;5116044;28;20516;-66
2021/05/09 03:52:34;;;;;;;6.43;4.23;;;12.30;1.00;;;;;;5115787;28;20455;-66
2021/05/09 03:55:01;;;;;;;5.97;4.30;;;12.30;1.00;;;;;;5115725;28;20463;-65
2021/05/09 03:57:27;;;;;;;4.60;3.77;;;12.20;1.00;;;;;;5115757;28;20484;-65
2021/05/09 03:59:55;;;;;;;6.50;4.83;;;12.30;1.00;;;;;;5116234;28;20448;-66
2021/05/09 04:02:24;;;;;;;4.87;4.00;;;12.30;1.00;;;;;;5115558;28;20928;-66
2021/05/09 04:04:51;;;;;;;8.17;4.27;;;12.30;1.00;;;;;;5119850;28;20782;-66
2021/05/09 04:07:17;;;;;;;5.80;3.93;;;12.20;1.00;;;;;;5118989;28;20455;-66
2021/05/09 04:09:43;;;;;;;4.00;3.70;;;12.30;1.00;;;;;;5119577;28;20935;-66
2021/05/09 04:12:11;;;;;;;4.23;3.83;;;12.30;1.00;;;;;;5119417;28;20453;-66
2021/05/09 04:14:37;;;;;;;4.33;3.93;;;12.30;1.00;;;;;;5119907;28;20916;-64
2021/05/09 04:17:04;;;;;;;6.43;3.90;;;12.30;1.00;;;;;;5119735;28;20452;-67
2021/05/09 04:19:30;;;;;;;5.40;4.00;;;12.30;1.00;;;;;;5119380;28;20504;-66
2021/05/09 04:22:00;;;;;;;4.40;3.87;;;12.20;1.00;;;;;;5119489;28;20460;-67
2021/05/09 04:24:26;;;;;;;4.03;3.63;;;12.30;1.00;;;;;;5119869;28;20561;-66
2021/05/09 04:26:53;;;;;;;4.60;3.33;;;12.30;1.00;;;;;;5118611;28;20452;-66
2021/05/09 04:29:20;;;;;;;5.50;4.43;;;12.30;1.00;;;;;;5119194;28;20467;-66
2021/05/09 04:31:46;;;;;;;5.67;3.97;;;12.30;1.00;;;;;;5118673;28;20476;-66
2021/05/09 04:34:12;;;;;;;4.53;4.13;;;12.30;1.00;;;;;;5119044;28;20936;-66
2021/05/09 04:36:38;;;;;;;3.70;3.40;;;12.40;1.00;;;;;;5118887;28;20457;-66
2021/05/09 04:39:05;;;;;;;5.43;3.83;;;12.40;1.00;;;;;;5119120;28;20477;-66
2021/05/09 04:41:33;;;;;;;5.40;4.57;;;12.30;1.00;;;;;;5118943;27;20463;-66
2021/05/09 04:44:01;;;;;;;4.07;3.67;;;12.30;1.00;;;;;;5119533;28;20471;-66
2021/05/09 04:46:29;;;;;;;4.30;3.90;;;12.30;1.00;;;;;;5118998;28;20461;-66
2021/05/09 04:48:55;;;;;;;4.43;3.90;;;12.30;1.00;;;;;;5118838;28;20456;-66
2021/05/09 04:51:21;;;;;;;4.70;4.20;;;12.40;1.00;;;;;;5118638;28;20464;-66
2021/05/09 04:53:49;;;;;;;4.07;3.70;;;12.40;1.00;;;;;;5118858;28;20452;-68
2021/05/09 04:56:17;;;;;;;4.53;4.13;;;12.40;1.00;;;;;;5119072;28;20453;-66
2021/05/09 04:58:44;;;;;;;4.23;3.93;;;12.40;1.00;;;;;;5118009;28;20472;-66
2021/05/09 05:01:12;;;;;;;4.80;4.37;;;12.50;1.00;;;;;;5118472;28;20850;-66
2021/05/09 05:03:40;;;;;;;3.93;3.63;;;12.50;1.00;;;;;;5118730;28;20488;-67
2021/05/09 05:06:06;;;;;;;7.80;3.80;;;12.50;1.00;;;;;;5118587;28;20456;-66
2021/05/09 05:08:34;;;;;;;4.40;4.00;;;12.60;1.00;;;;;;5118527;28;20848;-66
2021/05/09 05:11:01;;;;;;;3.70;3.40;;;12.50;1.00;;;;;;5118464;28;20932;-66
2021/05/09 05:13:28;;;;;;;4.63;4.23;;;12.50;1.00;;;;;;5118227;28;20970;-66
2021/05/09 05:15:56;;;;;;;4.97;4.23;;;12.50;1.00;;;;;;5117725;28;20453;-66
2021/05/09 05:18:23;;;;;;;11.97;3.47;;;12.50;1.00;;;;;;5118705;28;20556;-66
2021/05/09 05:20:51;;;;;;;4.20;3.90;;;12.50;1.00;;;;;;5118309;28;20456;-66
2021/05/09 05:23:18;;;;;;;4.73;3.60;;;12.60;1.00;;;;;;5117993;28;20448;-66
2021/05/09 05:25:45;;;;;;;3.90;3.50;;;12.60;1.00;;;;;;5118105;28;20513;-66
2021/05/09 05:28:11;;;;;;;3.77;3.40;;;12.70;1.00;;;;;;5118603;28;20784;-67
2021/05/09 05:30:38;;;;;;;3.33;3.03;;;12.80;1.00;;;;;;5117613;28;20563;-67
2021/05/09 05:33:05;;;;;;;3.40;3.10;;;12.90;1.00;;;;;;5118219;28;20452;-66
2021/05/09 05:35:32;;;;;;;5.30;3.90;;;13.00;1.00;;;;;;5117767;28;20453;-66
2021/05/09 05:37:59;;;;;;;3.33;2.93;;;13.00;1.00;;;;;;5117930;27;20483;-65
2021/05/09 05:40:26;;;;;;;3.90;3.60;;;13.10;1.00;;;;;;5117476;28;20944;-66
2021/05/09 05:42:53;;;;;;;4.83;3.40;;;13.30;1.00;;;;;;5117850;28;20471;-66
2021/05/09 05:45:19;;;;;;;3.50;3.20;;;13.30;1.00;;;;;;5117621;28;20462;-66
2021/05/09 05:47:49;;;;;;;4.00;3.60;;;13.50;1.00;;;;;;5117721;28;20449;-67
2021/05/09 05:50:15;;;;;;;3.73;3.43;;;13.60;1.00;;;;;;5117689;28;20452;-66
2021/05/09 05:52:44;;;;;;;4.23;3.60;;;13.80;1.00;;;;;;5117395;28;20934;-67
2021/05/09 05:55:12;;;;;;;4.07;3.67;;;13.80;1.00;;;;;;5117153;28;20509;-66
2021/05/09 05:57:38;;;;;;;3.10;2.90;;;14.00;1.00;;;;;;5117394;28;20533;-67
2021/05/09 06:00:05;;;;;;;3.57;3.27;;;14.00;1.00;;;;;;5117029;28;20457;-66
2021/05/09 06:02:32;;;;;;;4.43;3.60;;;14.10;1.00;;;;;;5117680;28;20466;-66
2021/05/09 06:04:58;;;;;;;3.70;3.40;;;14.10;1.00;;;;;;5116799;27;20513;-66
2021/05/09 06:07:27;;;;;;;7.00;3.13;;;14.20;1.00;;;;;;5116891;28;20477;-66
2021/05/09 06:09:55;;;;;;;4.37;3.97;;;14.20;1.00;;;;;;5116678;28;20479;-66
2021/05/09 06:12:22;;;;;;;3.63;3.10;;;14.20;1.00;;;;;;5116811;28;20456;-66
2021/05/09 06:14:48;;;;;;;3.80;3.37;;;14.30;1.00;;;;;;5116534;28;20531;-66
2021/05/09 06:17:16;;;;;;;4.30;3.00;;;14.30;1.00;;;;;;5116665;28;20456;-66
2021/05/09 06:19:44;;;;;;;3.77;3.30;;;14.40;1.00;;;;;;5116320;28;20460;-66
2021/05/09 06:22:10;;;;;;;5.00;3.50;;;14.50;1.00;;;;;;5116187;28;20553;-66
2021/05/09 06:24:39;;;;;;;3.20;2.67;;;14.50;1.00;;;;;;5116548;28;20942;-67
2021/05/09 06:27:07;;;;;;;3.23;2.90;;;14.60;1.00;;;;;;5115598;28;20456;-66
2021/05/09 06:29:34;;;;;;;4.30;3.07;;;14.50;1.00;;;;;;5116707;28;20465;-65
2021/05/09 06:32:00;;;;;;;3.40;3.10;;;14.60;1.00;;;;;;5115743;28;20480;-66
2021/05/09 06:34:26;;;;;;;6.40;3.10;;;14.60;1.00;;;;;;5116475;28;20479;-67
2021/05/09 06:36:53;;;;;;;3.53;2.70;;;14.70;1.00;;;;;;5115984;28;20460;-67
2021/05/09 06:39:25;;;;;;;3.13;2.93;;;14.70;1.00;;;;;;5117849;28;20480;-67
2021/05/09 06:41:51;;;;;;;3.37;3.07;;;14.70;1.00;;;;;;5118019;28;20889;-67
2021/05/09 06:44:17;;;;;;;3.00;2.80;;;14.80;1.00;;;;;;5116760;28;20956;-66
2021/05/09 06:46:45;;;;;;;3.03;2.80;;;14.90;1.00;;;;;;5116208;28;20467;-66
2021/05/09 06:49:11;;;;;;;2.90;2.33;;;14.80;1.00;;;;;;5116336;28;20488;-66
2021/05/09 06:51:37;;;;;;;3.70;3.07;;;14.90;1.00;;;;;;5116227;28;20459;-66
2021/05/09 06:54:07;;;;;;;4.10;2.70;;;14.90;1.00;;;;;;5116138;28;20465;-66
2021/05/09 06:56:33;;;;;;;2.70;2.50;;;15.00;1.00;;;;;;5115764;28;20460;-66
2021/05/09 06:58:59;;;;;;;2.50;2.30;;;15.00;1.00;;;;;;5115933;28;20480;-66
2021/05/09 07:01:25;;;;;;;5.30;2.70;;;15.10;1.00;;;;;;5115995;28;20456;-67
2021/05/09 07:03:52;;;;;;;4.40;2.40;;;15.20;1.00;;;;;;5115770;28;20642;-66
2021/05/09 07:06:19;;;;;;;2.73;2.50;;;15.30;1.00;;;;;;5116133;28;20463;-67
2021/05/09 07:08:45;;;;;;;3.70;2.57;;;15.40;1.00;;;;;;5116235;28;20448;-66
2021/05/09 07:11:11;;;;;;;4.70;2.70;;;15.40;1.00;;;;;;5115973;28;20478;-67
2021/05/09 07:13:37;;;;;;;4.90;2.50;;;15.50;1.00;;;;;;5116094;28;20462;-67
2021/05/09 07:16:04;;;;;;;3.40;2.30;;;15.50;1.00;;;;;;5115624;28;20457;-65
2021/05/09 07:18:31;;;;;;;3.40;2.20;;;15.60;1.00;;;;;;5115378;28;20979;-66
2021/05/09 07:21:01;;;;;;;3.60;2.50;;;15.70;1.00;;;;;;5115711;28;20908;-67
2021/05/09 07:23:28;;;;;;;2.30;2.10;;;15.80;1.00;;;;;;5115618;28;20452;-67
2021/05/09 07:25:56;;;;;;;3.07;2.33;;;15.90;1.00;;;;;;5116061;28;20503;-67
2021/05/09 07:28:22;;;;;;;3.00;2.00;;;16.00;1.00;;;;;;5115596;28;20465;-68
2021/05/09 07:30:49;;;;;;;2.77;2.53;;;16.10;1.00;;;;;;5115643;28;20482;-67
2021/05/09 07:33:15;;;;;;;4.17;2.83;;;16.30;1.00;;;;;;5115495;28;20452;-68
2021/05/09 07:35:42;;;;;;;3.43;2.33;;;16.40;1.00;;;;;;5115707;28;20471;-66
2021/05/09 07:38:11;;;;;;;2.70;2.20;;;16.70;1.00;;;;;;5116847;28;20480;-66
2021/05/09 07:40:37;;;;;;;2.60;2.03;;;16.90;1.00;;;;;;5119290;28;20917;-66
2021/05/09 07:43:03;;;;;;;2.80;1.93;;;17.10;1.00;;;;;;5118994;28;20452;-66
2021/05/09 07:45:30;;;;;;;2.37;1.90;;;17.30;1.00;;;;;;5119507;28;20478;-67
2021/05/09 07:47:56;;;;;;;2.23;1.87;;;17.40;1.00;;;;;;5119257;28;20456;-65
2021/05/09 07:50:25;;;;;;;2.47;2.20;;;17.30;1.00;;;;;;5119129;27;20460;-67
2021/05/09 07:52:52;;;;;;;2.53;2.00;;;17.40;1.00;;;;;;5119450;28;20483;-66
2021/05/09 07:55:19;;;;;;;3.53;1.97;;;17.60;1.00;;;;;;5118709;28;20456;-66
2021/05/09 07:57:45;;;;;;;2.43;1.87;;;17.70;1.00;;;;;;5119140;28;20476;-67
2021/05/09 08:00:15;;;;;;;7.60;1.80;;;17.80;1.00;;;;;;5119144;28;20455;-66
2021/05/09 08:02:41;;;;;;;2.50;2.03;;;17.90;1.00;;;;;;5119287;28;20544;-66
2021/05/09 08:05:09;;;;;;;2.83;1.90;;;17.90;1.00;;;;;;5118918;28;20452;-66
2021/05/09 08:07:35;;;;;;;2.20;2.00;;;17.90;1.00;;;;;;5119183;28;20460;-67
2021/05/09 08:10:01;;;;;;;2.43;1.80;;;17.90;1.00;;;;;;5118893;28;20796;-66
2021/05/09 08:12:28;;;;;;;2.73;1.50;;;17.80;1.00;;;;;;5119116;28;20456;-67
2021/05/09 08:14:54;;;;;;;3.43;2.00;;;17.90;1.00;;;;;;5118683;28;20456;-65
2021/05/09 08:17:20;;;;;;;3.70;2.10;;;17.90;1.00;;;;;;5118720;28;20460;-67
2021/05/09 08:19:47;;;;;;;3.13;2.20;;;18.10;1.00;;;;;;5118300;28;20804;-67
2021/05/09 08:22:13;;;;;;;2.00;1.80;;;18.20;1.00;;;;;;5118479;28;20490;-66
2021/05/09 08:24:39;;;;;;;2.20;1.63;;;18.30;1.00;;;;;;5118548;28;20464;-68
2021/05/09 08:27:06;;;;;;;2.60;1.70;;;18.20;1.00;;;;;;5118799;28;20505;-66
2021/05/09 08:29:33;;;;;;;3.10;1.70;;;18.20;1.00;;;;;;5118260;28;20444;-66
2021/05/09 08:31:59;;;;;;;2.13;1.73;;;18.40;1.00;;;;;;5118126;28;20469;-66
2021/05/09 08:34:25;;;;;;;2.63;1.73;;;18.50;1.00;;;;;;5118295;28;20467;-66
2021/05/09 08:36:54;;;;;;;2.33;1.63;;;18.50;1.00;;;;;;5118112;28;20477;-66
2021/05/09 08:39:20;;;;;;;3.63;1.67;;;18.70;1.00;;;;;;5118162;28;20489;-66
2021/05/09 08:41:48;;;;;;;3.60;1.97;;;18.80;1.00;;;;;;5118665;28;20460;-66
2021/05/09 08:44:14;;;;;;;1.60;1.50;;;18.90;1.00;;;;;;5118120;28;20464;-65
2021/05/09 08:46:45;;;;;;;2.10;1.50;;;18.90;1.00;;;;;;5118300;28;20471;-67
2021/05/09 08:49:14;;;;;;;4.10;1.90;;;19.10;1.00;;;;;;5119297;28;20755;-67
2021/05/09 08:51:41;;;;;;;1.40;1.30;;;19.10;1.00;;;;;;5123338;28;20457;-67
2021/05/09 08:54:08;;;;;;;2.43;1.20;;;19.20;1.00;;;;;;5117783;28;20452;-66
2021/05/09 08:56:35;;;;;;;1.60;1.50;;;19.30;1.00;;;;;;5118032;28;21003;-66
2021/05/09 08:59:02;;;;;;;2.50;1.70;;;19.40;1.00;;;;;;5117480;28;20460;-66
2021/05/09 09:01:29;;;;;;;1.93;1.70;;;19.60;1.00;;;;;;5117956;28;20486;-67
2021/05/09 09:03:56;;;;;;;1.87;1.30;;;19.70;1.00;;;;;;5117952;28;20457;-67
2021/05/09 09:06:41;;;;;;;2.43;1.33;;;19.70;1.00;;;;;;5117573;28;20456;-66
2021/05/09 09:09:17;;;;;;;5.60;1.87;;;19.80;1.00;;;;;;5117568;28;20489;-66
2021/05/09 09:11:49;;;;;;;3.47;1.77;;;20.00;1.00;;;;;;5118195;28;20443;-66
2021/05/09 09:14:16;;;;;;;1.40;1.30;;;20.10;1.00;;;;;;5124552;28;20844;-67
2021/05/09 09:16:42;;;;;;;4.60;1.53;;;20.10;1.00;;;;;;5124601;28;20545;-65
2021/05/09 09:19:10;;;;;;;1.47;1.30;;;20.30;1.00;;;;;;5123851;28;20476;-66
2021/05/09 09:21:41;;;;;;;1.47;1.20;;;20.40;1.00;;;;;;5125096;28;20469;-67
2021/05/09 09:24:10;;;;;;;2.43;1.40;;;20.40;1.00;;;;;;5125163;27;20460;-66
2021/05/09 09:26:41;;;;;;;2.33;1.37;;;20.40;1.00;;;;;;5125958;28;20452;-67
2021/05/09 09:29:25;;;;;;;3.63;1.43;;;20.50;1.00;;;;;;5122960;28;20448;-67
2021/05/09 09:31:54;;;;;;;1.90;1.50;;;20.50;1.00;;;;;;5120228;28;20480;-66
2021/05/09 09:34:21;;;;;;;1.73;1.30;;;20.60;1.00;;;;;;5120850;28;20457;-66
2021/05/09 09:36:48;;;;;;;2.87;1.10;;;20.70;1.00;;;;;;5121839;28;20460;-66
2021/05/09 09:39:14;;;;;;;2.50;1.20;;;20.70;1.00;;;;;;5123246;28;20480;-65
2021/05/09 09:41:47;;;;;;;1.50;1.20;;;20.80;1.00;;;;;;5122780;28;20449;-67
2021/05/09 09:44:16;;;;;;;3.67;1.17;;;20.90;1.00;;;;;;5125989;28;20889;-67
2021/05/09 09:46:51;;;;;;;1.57;1.30;;;21.00;1.00;;;;;;5123311;28;20449;-67
2021/05/09 09:49:22;;;;;;;1.30;1.10;;;21.10;1.00;;;;;;5122715;28;20462;-66
2021/05/09 09:51:56;;;;;;;1.30;1.00;;;21.20;1.00;;;;;;5119413;28;20452;-67
2021/05/09 09:54:38;;;;;;;3.57;1.20;;;21.30;1.00;;;;;;5120820;28;20444;-67
2021/05/09 09:57:06;;;;;;;1.37;1.20;;;21.40;1.00;;;;;;5122701;28;20477;-67
2021/05/09 09:59:34;;;;;;;2.77;1.10;;;21.40;1.00;;;;;;5121161;28;20616;-66
2021/05/09 10:02:01;;;;;;;1.53;1.23;;;21.40;1.00;;;;;;5120492;28;20607;-67
2021/05/09 10:04:28;;;;;;;3.33;1.10;;;21.50;1.00;;;;;;5119634;28;20448;-67
2021/05/09 10:06:55;;;;;;;1.70;1.10;;;21.70;1.00;;;;;;5119622;28;20487;-66
2021/05/09 10:09:21;;;;;;;1.50;1.10;;;21.70;1.00;;;;;;5117910;28;20604;-67
2021/05/09 10:11:47;;;;;;;2.03;1.23;;;21.70;1.00;;;;;;5117863;28;20468;-67
2021/05/09 10:14:14;;;;;;;2.50;1.10;;;21.80;1.00;;;;;;5117989;28;20457;-66
2021/05/09 10:16:42;;;;;;;1.80;1.00;;;21.80;1.00;;;;;;5118014;28;20549;-66
2021/05/09 10:19:14;;;;;;;1.20;1.10;;;21.80;1.00;;;;;;5117855;27;20473;-67
2021/05/09 10:21:43;;;;;;;1.53;0.93;;;21.90;1.00;;;;;;5117857;28;20498;-66
2021/05/09 10:24:11;;;;;;;1.67;1.20;;;21.90;1.00;;;;;;5118949;28;20448;-66
2021/05/09 10:26:53;;;;;;;3.03;1.03;;;22.00;1.00;;;;;;5119655;28;20456;-66
2021/05/09 10:29:49;;;;;;;1.63;1.20;;;22.00;1.00;;;;;;5120621;28;20468;-67
2021/05/09 10:32:50;;;;;;;1.80;1.13;;;22.10;1.00;;;;;;5125357;28;20446;-66
2021/05/09 10:35:17;;;;;;;2.33;1.20;;;22.30;1.00;;;;;;5125881;27;20448;-67
2021/05/09 10:38:04;;;;;;;2.60;1.20;;;22.40;1.00;;;;;;5127874;28;20478;-67
2021/05/09 10:40:34;;;;;;;1.53;1.17;;;22.40;1.00;;;;;;5126247;28;20452;-67
2021/05/09 10:43:37;;;;;;;1.20;1.00;;;22.40;1.00;;;;;;5121736;28;20783;-66
2021/05/09 10:46:07;;;;;;;2.10;1.17;;;22.40;1.00;;;;;;5121074;28;20789;-65
2021/05/09 10:48:34;;;;;;;1.33;1.00;;;22.50;1.00;;;;;;5121193;28;20474;-65
2021/05/09 10:51:28;;;;;;;2.07;1.40;;;22.50;1.00;;;;;;5120331;28;20448;-66
2021/05/09 10:54:19;;;;;;;1.80;1.33;;;22.60;1.00;;;;;;5120256;28;20903;-66
2021/05/09 10:56:46;;;;;;;1.73;0.90;;;22.60;1.00;;;;;;5120037;28;20470;-66
2021/05/09 10:59:12;;;;;;;2.77;1.40;;;22.70;1.00;;;;;;5120585;28;20476;-66
2021/05/09 11:01:39;;;;;;;1.50;1.23;;;22.80;1.00;;;;;;5117104;28;20456;-66
2021/05/09 11:04:06;;;;;;;1.70;1.03;;;22.80;1.00;;;;;;5116720;28;20452;-66
2021/05/09 11:06:47;;;;;;;3.00;1.40;;;22.90;1.00;;;;;;5117058;28;20956;-66
2021/05/09 11:09:16;;;;;;;1.63;1.10;;;22.90;1.00;;;;;;5118331;28;20465;-66
2021/05/09 11:12:02;;;;;;;2.47;1.20;;;23.00;1.00;;;;;;5116298;28;20453;-66
2021/05/09 11:14:36;;;;;;;1.70;1.40;;;23.10;1.00;;;;;;5121411;28;20451;-67
2021/05/09 11:17:17;;;;;;;1.97;1.30;;;23.40;1.00;;;;;;5122300;28;20546;-67
2021/05/09 11:19:52;;;;;;;2.27;1.20;;;24.00;1.00;;;;;;5120672;28;20903;-67
2021/05/09 11:22:20;;;;;;;1.20;1.00;;;24.70;1.00;;;;;;5120141;28;20455;-66
2021/05/09 11:24:57;;;;;;;1.57;1.00;;;25.50;1.00;;;;;;5120484;28;20924;-66
2021/05/09 11:27:23;;;;;;;2.50;1.20;;;26.40;1.00;;;;;;5120163;28;20541;-66
2021/05/09 11:29:50;;;;;;;1.20;1.00;;;27.30;1.00;;;;;;5120449;28;20459;-66
2021/05/09 11:32:18;;;;;;;2.03;1.30;;;28.00;1.00;;;;;;5120704;28;20444;-67
2021/05/09 11:34:53;;;;;;;1.30;1.20;;;28.20;1.00;;;;;;5123338;28;20548;-64
2021/05/09 11:37:23;;;;;;;6.93;1.17;;;28.00;1.00;;;;;;5124186;28;20466;-64
2021/05/09 11:39:50;;;;;;;1.70;1.00;;;28.00;1.00;;;;;;5123235;28;20472;-66
2021/05/09 11:42:18;;;;;;;1.47;1.10;;;28.30;1.00;;;;;;5123294;28;20464;-69
2021/05/09 11:44:46;;;;;;;1.60;1.10;;;28.00;1.00;;;;;;5121193;28;20452;-66
2021/05/09 11:47:20;;;;;;;1.57;1.47;;;27.70;1.00;;;;;;5119747;28;20574;-67
2021/05/09 11:49:47;;;;;;;2.10;1.20;;;27.90;1.00;;;;;;5119815;28;20455;-66
2021/05/09 11:52:18;;;;;;;1.33;1.20;;;28.00;1.00;;;;;;5119814;28;20455;-66
2021/05/09 11:54:45;;;;;;;1.30;1.10;;;28.10;1.00;;;;;;5120006;28;20527;-66
2021/05/09 11:57:13;;;;;;;1.20;1.07;;;28.40;1.00;;;;;;5119724;28;20467;-68
2021/05/09 11:59:42;;;;;;;1.43;1.10;;;28.60;1.00;;;;;;5120117;28;20483;-67
2021/05/09 12:02:31;;;;;;;1.47;1.20;;;28.90;1.00;;;;;;5119365;28;20816;-66
2021/05/09 12:05:04;;;;;;;1.60;1.30;;;29.00;1.00;;;;;;5119590;28;20420;-66
2021/05/09 12:07:34;;;;;;;1.20;1.10;;;29.40;1.00;;;;;;5119325;28;20821;-67
2021/05/09 12:10:04;;;;;;;1.40;1.10;;;29.10;1.00;;;;;;5119643;28;20458;-66
2021/05/09 12:12:33;;;;;;;1.70;1.10;;;29.40;1.00;;;;;;5119475;28;20516;-67
2021/05/09 12:15:11;;;;;;;2.40;1.20;;;29.90;1.00;;;;;;5119647;28;20452;-66
2021/05/09 12:17:49;;;;;;;2.40;1.10;;;29.70;1.00;;;;;;5119118;28;20454;-67
2021/05/09 12:20:27;;;;;;;1.80;1.27;;;29.70;1.00;;;;;;5119147;28;20902;-66
2021/05/09 12:22:54;;;;;;;1.20;1.00;;;30.00;1.00;;;;;;5118706;28;20943;-66
2021/05/09 12:25:40;;;;;;;1.67;1.03;;;30.30;1.00;;;;;;5118713;28;20462;-66
2021/05/09 12:28:13;;;;;;;1.30;1.10;;;30.40;1.00;;;;;;5118461;28;20441;-67
2021/05/09 12:30:40;;;;;;;1.40;0.97;;;30.60;1.00;;;;;;5128956;28;20476;-67
2021/05/09 12:33:06;;;;;;;1.40;0.97;;;30.90;1.00;;;;;;5129547;28;20482;-67
2021/05/09 12:35:43;;;;;;;1.23;1.00;;;31.10;1.00;;;;;;5123939;28;20460;-65
2021/05/09 12:38:11;;;;;;;1.27;1.07;;;31.30;1.00;;;;;;5120737;28;20499;-64
2021/05/09 12:40:38;;;;;;;1.30;1.03;;;31.00;1.00;;;;;;5120675;28;20452;-65
2021/05/09 12:43:08;;;;;;;1.27;1.10;;;31.00;1.00;;;;;;5120493;28;20453;-65
2021/05/09 12:45:41;;;;;;;3.00;1.10;;;31.10;1.00;;;;;;5119068;28;20448;-66
2021/05/09 12:48:16;;;;;;;1.40;0.97;;;31.40;1.00;;;;;;5117954;28;20448;-66
2021/05/09 12:50:50;;;;;;;1.47;1.10;;;31.50;1.00;;;;;;5117639;28;20444;-65
2021/05/09 12:53:18;;;;;;;1.67;1.20;;;31.90;1.00;;;;;;5117635;28;20505;-66
2021/05/09 12:55:44;;;;;;;1.30;1.00;;;31.90;1.00;;;;;;5117837;28;20448;-66
2021/05/09 12:58:13;;;;;;;1.50;1.30;;;31.70;1.00;;;;;;5117427;28;21020;-67
2021/05/09 13:00:41;;;;;;;3.87;1.80;;;31.80;1.00;;;;;;5117683;28;20453;-66
2021/05/09 13:03:07;;;;;;;2.47;1.10;;;32.00;1.00;;;;;;5117868;28;20464;-66
2021/05/09 13:05:34;;;;;;;2.20;2.00;;;32.40;1.00;;;;;;5117181;28;20506;-65
2021/05/09 13:08:00;;;;;;;1.30;1.20;;;32.30;1.00;;;;;;5117842;28;20459;-65
2021/05/09 13:10:28;;;;;;;1.20;1.07;;;32.20;1.00;;;;;;5117659;28;20513;-66
2021/05/09 13:12:56;;;;;;;2.23;1.37;;;31.80;1.00;;;;;;5117636;28;20448;-66
2021/05/09 13:15:23;;;;;;;2.17;1.30;;;31.80;1.00;;;;;;5117187;28;20467;-66
2021/05/09 13:17:51;;;;;;;1.63;1.30;;;31.70;1.00;;;;;;5118055;28;20452;-67
2021/05/09 13:20:19;;;;;;;2.17;1.00;;;31.70;1.00;;;;;;5120301;28;20464;-68
2021/05/09 13:22:45;;;;;;;2.37;1.20;;;31.60;1.00;;;;;;5119313;28;20452;-65